Time;durP1;ratioP1;P1;durP2;ratioP2;P2;SDS_P1;SDS_P2;PMS_P1;PMS_P2;Temp;Humidity;BMP_temperature;BMP_pressure;BME280_temperature;BME280_humidity;BME280_pressure;Samples;Min_cycle;Max_cycle;Signal;HPM_P1;HPM_P2
2023/07/25 00:01:15;;;;;;;;;;;;;;;;;;2070108;28;19910;-83
2023/07/25 00:02:35;;;;;;;;;;;;;;;;;;2069828;28;19918;-82
2023/07/25 00:03:56;;;;;;;;;;;;;;;;;;2068870;28;19914;-82
2023/07/25 00:05:17;;;;;;;;;;;;;;;;;;2070610;28;20328;-83
2023/07/25 00:06:37;;;;;;;;;;;;;;;;;;2067402;28;19918;-82
2023/07/25 00:07:58;;;;;;;;;;;;;;;;;;2074469;28;19987;-83
2023/07/25 00:09:19;;;;;;;;;;;;;;;;;;2067544;28;19917;-83
2023/07/25 00:10:39;;;;;;;;;;;;;;;;;;2067510;28;19910;-83
2023/07/25 00:12:00;;;;;;;;;;;;;;;;;;2072582;28;19956;-82
2023/07/25 00:13:21;;;;;;;;;;;;;;;;;;2064765;28;19960;-82
2023/07/25 00:14:42;;;;;;;;;;;;;;;;;;2072941;28;20373;-83
2023/07/25 00:16:03;;;;;;;;;;;;;;;;;;2068488;28;19936;-83
2023/07/25 00:17:23;;;;;;;;;;;;;;;;;;2069855;28;19910;-83
2023/07/25 00:18:44;;;;;;;;;;;;;;;;;;2057346;28;19926;-82
2023/07/25 00:20:05;;;;;;;;;;;;;;;;;;2069141;28;19910;-83
2023/07/25 00:21:25;;;;;;;;;;;;;;;;;;2073760;28;19917;-82
2023/07/25 00:22:46;;;;;;;;;;;;;;;;;;2063225;28;19913;-83
2023/07/25 00:24:07;;;;;;;;;;;;;;;;;;2064755;28;19921;-83
2023/07/25 00:25:27;;;;;;;;;;;;;;;;;;2061569;28;19914;-83
2023/07/25 00:26:48;;;;;;;;;;;;;;;;;;2076612;28;19936;-83
2023/07/25 00:28:09;;;;;;;;;;;;;;;;;;2068500;28;19913;-82
2023/07/25 00:29:29;;;;;;;;;;;;;;;;;;2064405;28;19917;-82
2023/07/25 00:30:50;;;;;;;;;;;;;;;;;;2067907;28;19909;-83
2023/07/25 00:32:11;;;;;;;;;;;;;;;;;;2071341;28;19924;-83
2023/07/25 00:33:32;;;;;;;;;;;;;;;;;;2061840;28;19909;-83
2023/07/25 00:34:52;;;;;;;;;;;;;;;;;;2070982;28;19924;-83
2023/07/25 00:36:13;;;;;;;;;;;;;;;;;;2073402;28;19909;-83
2023/07/25 00:37:34;;;;;;;;;;;;;;;;;;2065987;28;19929;-83
2023/07/25 00:38:54;;;;;;;;;;;;;;;;;;2068089;28;19918;-83
2023/07/25 00:40:15;;;;;;;;;;;;;;;;;;2070314;28;20323;-83
2023/07/25 00:41:36;;;;;;;;;;;;;;;;;;2066541;28;19914;-83
2023/07/25 00:42:57;;;;;;;;;;;;;;;;;;2065181;28;19940;-83
2023/07/25 00:44:17;;;;;;;;;;;;;;;;;;2062795;28;20111;-83
2023/07/25 00:45:38;;;;;;;;;;;;;;;;;;2069611;28;20271;-83
2023/07/25 00:46:59;;;;;;;;;;;;;;;;;;2068145;28;19940;-83
2023/07/25 00:48:19;;;;;;;;;;;;;;;;;;2074845;28;19916;-82
2023/07/25 00:49:40;;;;;;;;;;;;;;;;;;2071552;28;20337;-82
2023/07/25 00:51:01;;;;;;;;;;;;;;;;;;2075933;28;19964;-83
2023/07/25 00:52:21;;;;;;;;;;;;;;;;;;2078704;28;19913;-83
2023/07/25 00:53:42;;;;;;;;;;;;;;;;;;2076494;28;20288;-83
2023/07/25 00:55:03;;;;;;;;;;;;;;;;;;2075145;28;19920;-83
2023/07/25 00:56:24;;;;;;;;;;;;;;;;;;2078356;28;19971;-83
2023/07/25 00:57:44;;;;;;;;;;;;;;;;;;2067702;28;19910;-83
2023/07/25 00:59:05;;;;;;;;;;;;;;;;;;2074602;28;19933;-83
2023/07/25 01:00:26;;;;;;;;;;;;;;;;;;2076850;28;20443;-83
2023/07/25 01:01:46;;;;;;;;;;;;;;;;;;2077336;28;19916;-83
2023/07/25 01:03:07;;;;;;;;;;;;;;;;;;2070933;28;19913;-83
2023/07/25 01:04:28;;;;;;;;;;;;;;;;;;2068957;28;19913;-83
2023/07/25 01:05:48;;;;;;;;;;;;;;;;;;2066464;28;19910;-84
2023/07/25 01:07:09;;;;;;;;;;;;;;;;;;2060842;28;19989;-83
2023/07/25 01:08:30;;;;;;;;;;;;;;;;;;2069987;28;19939;-83
2023/07/25 01:09:50;;;;;;;;;;;;;;;;;;2065507;28;20272;-83
2023/07/25 01:11:11;;;;;;;;;;;;;;;;;;2070040;28;19910;-83
2023/07/25 01:12:32;;;;;;;;;;;;;;;;;;2069975;28;19910;-83
2023/07/25 01:13:52;;;;;;;;;;;;;;;;;;2063781;28;19932;-83
2023/07/25 01:15:13;;;;;;;;;;;;;;;;;;2075858;28;19924;-83
2023/07/25 01:16:35;;;;;;;;;;;;;;;;;;2069676;28;20463;-83
2023/07/25 01:17:56;;;;;;;;;;;;;;;;;;2069269;28;19913;-83
2023/07/25 01:19:17;;;;;;;;;;;;;;;;;;2072781;28;19920;-83
2023/07/25 01:20:37;;;;;;;;;;;;;;;;;;2067674;28;19920;-84
2023/07/25 01:21:58;;;;;;;;;;;;;;;;;;2070212;28;19920;-82
2023/07/25 01:23:19;;;;;;;;;;;;;;;;;;2066079;28;19909;-83
2023/07/25 01:24:39;;;;;;;;;;;;;;;;;;2072786;28;19909;-83
2023/07/25 01:26:00;;;;;;;;;;;;;;;;;;2074784;28;19909;-84
2023/07/25 01:27:21;;;;;;;;;;;;;;;;;;2079367;28;19955;-83
2023/07/25 01:28:41;;;;;;;;;;;;;;;;;;2063269;28;19909;-83
2023/07/25 01:30:02;;;;;;;;;;;;;;;;;;2060952;28;19985;-83
2023/07/25 01:31:23;;;;;;;;;;;;;;;;;;2063916;28;19910;-83
2023/07/25 01:32:44;;;;;;;;;;;;;;;;;;2074473;28;20644;-82
2023/07/25 01:34:04;;;;;;;;;;;;;;;;;;2072137;28;19916;-83
2023/07/25 01:35:25;;;;;;;;;;;;;;;;;;2065132;28;19921;-83
2023/07/25 01:36:46;;;;;;;;;;;;;;;;;;2067957;28;19921;-84
2023/07/25 01:38:06;;;;;;;;;;;;;;;;;;2080755;28;19909;-83
2023/07/25 01:39:27;;;;;;;;;;;;;;;;;;2068599;28;20253;-83
2023/07/25 01:40:48;;;;;;;;;;;;;;;;;;2062248;28;19918;-83
2023/07/25 01:42:08;;;;;;;;;;;;;;;;;;2063377;28;19914;-83
2023/07/25 01:43:29;;;;;;;;;;;;;;;;;;2063529;28;19909;-84
2023/07/25 01:44:50;;;;;;;;;;;;;;;;;;2070297;28;19928;-83
2023/07/25 01:46:10;;;;;;;;;;;;;;;;;;2075446;28;19914;-84
2023/07/25 01:47:31;;;;;;;;;;;;;;;;;;2073953;28;19983;-84
2023/07/25 01:48:52;;;;;;;;;;;;;;;;;;2069467;28;19925;-83
2023/07/25 01:50:13;;;;;;;;;;;;;;;;;;2070726;28;19917;-83
2023/07/25 01:51:34;;;;;;;;;;;;;;;;;;2064730;28;19913;-83
2023/07/25 01:52:54;;;;;;;;;;;;;;;;;;2069911;28;19916;-84
2023/07/25 01:54:16;;;;;;;;;;;;;;;;;;2063877;28;19913;-83
2023/07/25 01:55:37;;;;;;;;;;;;;;;;;;2075551;28;20003;-84
2023/07/25 01:56:58;;;;;;;;;;;;;;;;;;2067277;28;19920;-84
2023/07/25 01:58:18;;;;;;;;;;;;;;;;;;2067510;28;19937;-83
2023/07/25 01:59:39;;;;;;;;;;;;;;;;;;2065932;28;19944;-83
2023/07/25 02:01:00;;;;;;;;;;;;;;;;;;2071203;28;19928;-83
2023/07/25 02:02:20;;;;;;;;;;;;;;;;;;2076221;28;19931;-83
2023/07/25 02:03:41;;;;;;;;;;;;;;;;;;2064747;28;19973;-83
2023/07/25 02:05:02;;;;;;;;;;;;;;;;;;2071805;28;19913;-75
2023/07/25 02:06:23;;;;;;;;;;;;;;;;;;2072335;28;19921;-75
2023/07/25 02:07:43;;;;;;;;;;;;;;;;;;2065595;28;19913;-75
2023/07/25 02:09:04;;;;;;;;;;;;;;;;;;2075883;28;20348;-75
2023/07/25 02:10:27;;;;;;;;;;;;;;;;;;2066746;28;19925;-75
2023/07/25 02:11:48;;;;;;;;;;;;;;;;;;2061945;28;19928;-74
2023/07/25 02:13:08;;;;;;;;;;;;;;;;;;2064008;28;19913;-75
2023/07/25 02:14:29;;;;;;;;;;;;;;;;;;2072874;28;20141;-75
2023/07/25 02:15:50;;;;;;;;;;;;;;;;;;2076233;28;19913;-75
2023/07/25 02:17:10;;;;;;;;;;;;;;;;;;2074235;28;20371;-75
2023/07/25 02:18:31;;;;;;;;;;;;;;;;;;2075588;28;20016;-75
2023/07/25 02:19:52;;;;;;;;;;;;;;;;;;2077478;28;20407;-75
2023/07/25 02:21:12;;;;;;;;;;;;;;;;;;2065763;28;19972;-75
2023/07/25 02:22:33;;;;;;;;;;;;;;;;;;2061599;28;19921;-75
2023/07/25 02:23:54;;;;;;;;;;;;;;;;;;2067107;28;19909;-75
2023/07/25 02:25:15;;;;;;;;;;;;;;;;;;2068535;28;19976;-75
2023/07/25 02:26:35;;;;;;;;;;;;;;;;;;2071056;28;19909;-75
2023/07/25 02:27:56;;;;;;;;;;;;;;;;;;2070096;28;19918;-75
2023/07/25 02:29:17;;;;;;;;;;;;;;;;;;2067346;28;19909;-75
2023/07/25 02:30:37;;;;;;;;;;;;;;;;;;2061407;28;19956;-75
2023/07/25 02:31:58;;;;;;;;;;;;;;;;;;2064306;28;20016;-75
2023/07/25 02:33:19;;;;;;;;;;;;;;;;;;2065277;28;20450;-75
2023/07/25 02:34:40;;;;;;;;;;;;;;;;;;2070513;28;19910;-75
2023/07/25 02:36:00;;;;;;;;;;;;;;;;;;2070471;28;20391;-82
2023/07/25 02:37:21;;;;;;;;;;;;;;;;;;2074122;28;19909;-83
2023/07/25 02:38:42;;;;;;;;;;;;;;;;;;2066007;28;19909;-83
2023/07/25 02:40:02;;;;;;;;;;;;;;;;;;2075250;28;19922;-83
2023/07/25 02:41:23;;;;;;;;;;;;;;;;;;2074704;28;19909;-83
2023/07/25 02:42:44;;;;;;;;;;;;;;;;;;2062939;28;19913;-82
2023/07/25 02:44:04;;;;;;;;;;;;;;;;;;2066757;28;20315;-83
2023/07/25 02:45:25;;;;;;;;;;;;;;;;;;2060829;28;19918;-84
2023/07/25 02:46:46;;;;;;;;;;;;;;;;;;2071326;28;20268;-83
2023/07/25 02:48:06;;;;;;;;;;;;;;;;;;2070390;28;19905;-83
2023/07/25 02:49:27;;;;;;;;;;;;;;;;;;2073415;28;19916;-83
2023/07/25 02:50:48;;;;;;;;;;;;;;;;;;2072396;28;20378;-83
2023/07/25 02:52:09;;;;;;;;;;;;;;;;;;2065471;28;19916;-83
2023/07/25 02:53:29;;;;;;;;;;;;;;;;;;2065350;28;19965;-84
2023/07/25 02:54:50;;;;;;;;;;;;;;;;;;2066411;28;19921;-84
2023/07/25 02:56:11;;;;;;;;;;;;;;;;;;2077076;28;19919;-83
2023/07/25 02:57:31;;;;;;;;;;;;;;;;;;2070094;28;19910;-84
2023/07/25 02:58:52;;;;;;;;;;;;;;;;;;2066265;28;20130;-83
2023/07/25 03:00:13;;;;;;;;;;;;;;;;;;2057727;28;20369;-83
2023/07/25 03:01:34;;;;;;;;;;;;;;;;;;2057763;28;19906;-84
2023/07/25 03:02:55;;;;;;;;;;;;;;;;;;2070536;28;19928;-83
2023/07/25 03:04:15;;;;;;;;;;;;;;;;;;2066904;28;19910;-83
2023/07/25 03:05:36;;;;;;;;;;;;;;;;;;2079060;28;19916;-83
2023/07/25 03:06:57;;;;;;;;;;;;;;;;;;2067670;28;19916;-83
2023/07/25 03:08:17;;;;;;;;;;;;;;;;;;2070411;28;19910;-83
2023/07/25 03:09:40;;;;;;;;;;;;;;;;;;2073442;28;19920;-83
2023/07/25 03:11:00;;;;;;;;;;;;;;;;;;2063752;28;19925;-83
2023/07/25 03:12:21;;;;;;;;;;;;;;;;;;2066536;28;19905;-83
2023/07/25 03:13:42;;;;;;;;;;;;;;;;;;2070081;28;19905;-83
2023/07/25 03:15:03;;;;;;;;;;;;;;;;;;2068002;28;19906;-83
2023/07/25 03:16:23;;;;;;;;;;;;;;;;;;2059370;28;19914;-82
2023/07/25 03:17:44;;;;;;;;;;;;;;;;;;2072223;28;19953;-83
2023/07/25 03:19:05;;;;;;;;;;;;;;;;;;2071519;28;19913;-83
2023/07/25 03:20:25;;;;;;;;;;;;;;;;;;2067813;28;19914;-83
2023/07/25 03:21:46;;;;;;;;;;;;;;;;;;2071421;28;19909;-84
2023/07/25 03:23:07;;;;;;;;;;;;;;;;;;2070953;28;19979;-83
2023/07/25 03:24:27;;;;;;;;;;;;;;;;;;2079941;28;19917;-83
2023/07/25 03:25:48;;;;;;;;;;;;;;;;;;2069553;28;19984;-83
2023/07/25 03:27:09;;;;;;;;;;;;;;;;;;2071877;28;19929;-83
2023/07/25 03:28:30;;;;;;;;;;;;;;;;;;2074878;28;19905;-83
2023/07/25 03:29:50;;;;;;;;;;;;;;;;;;2072999;28;19905;-82
2023/07/25 03:31:11;;;;;;;;;;;;;;;;;;2066463;28;19924;-84
2023/07/25 03:32:32;;;;;;;;;;;;;;;;;;2064069;28;19910;-83
2023/07/25 03:33:53;;;;;;;;;;;;;;;;;;2071666;28;19905;-83
2023/07/25 03:35:13;;;;;;;;;;;;;;;;;;2074543;28;20391;-84
2023/07/25 03:36:34;;;;;;;;;;;;;;;;;;2073484;28;20364;-83
2023/07/25 03:37:55;;;;;;;;;;;;;;;;;;2075108;28;19940;-83
2023/07/25 03:39:16;;;;;;;;;;;;;;;;;;2073939;28;20320;-83
2023/07/25 03:40:36;;;;;;;;;;;;;;;;;;2074275;28;19913;-83
2023/07/25 03:41:57;;;;;;;;;;;;;;;;;;2074154;28;19913;-83
2023/07/25 03:43:18;;;;;;;;;;;;;;;;;;2075485;28;20361;-83
2023/07/25 03:44:39;;;;;;;;;;;;;;;;;;2066346;28;19910;-84
2023/07/25 03:45:59;;;;;;;;;;;;;;;;;;2073881;28;19924;-83
2023/07/25 03:47:20;;;;;;;;;;;;;;;;;;2070018;28;19905;-83
2023/07/25 03:48:41;;;;;;;;;;;;;;;;;;2070824;28;19964;-83
2023/07/25 03:50:02;;;;;;;;;;;;;;;;;;2071491;28;19916;-83
2023/07/25 03:51:22;;;;;;;;;;;;;;;;;;2067994;28;19917;-84
2023/07/25 03:52:43;;;;;;;;;;;;;;;;;;2070642;28;19917;-83
2023/07/25 03:54:04;;;;;;;;;;;;;;;;;;2063522;28;19906;-83
2023/07/25 03:55:25;;;;;;;;;;;;;;;;;;2063239;28;19910;-84
2023/07/25 03:56:45;;;;;;;;;;;;;;;;;;2073815;28;19906;-83
2023/07/25 03:58:06;;;;;;;;;;;;;;;;;;2070060;28;20005;-83
2023/07/25 03:59:27;;;;;;;;;;;;;;;;;;2075489;28;19932;-84
2023/07/25 04:00:47;;;;;;;;;;;;;;;;;;2068809;28;19925;-83
2023/07/25 04:02:08;;;;;;;;;;;;;;;;;;2074778;28;19910;-83
2023/07/25 04:03:29;;;;;;;;;;;;;;;;;;2061937;28;19910;-83
2023/07/25 04:04:50;;;;;;;;;;;;;;;;;;2072290;28;19909;-84
2023/07/25 04:06:10;;;;;;;;;;;;;;;;;;2074922;28;19996;-83
2023/07/25 04:07:31;;;;;;;;;;;;;;;;;;2074948;28;19913;-83
2023/07/25 04:08:52;;;;;;;;;;;;;;;;;;2067386;28;19914;-83
2023/07/25 04:10:12;;;;;;;;;;;;;;;;;;2065449;28;19968;-83
2023/07/25 04:11:33;;;;;;;;;;;;;;;;;;2065417;28;19910;-82
2023/07/25 04:12:54;;;;;;;;;;;;;;;;;;2064214;28;20456;-84
2023/07/25 04:14:14;;;;;;;;;;;;;;;;;;2072326;28;20303;-83
2023/07/25 04:15:35;;;;;;;;;;;;;;;;;;2066783;28;19906;-83
2023/07/25 04:16:56;;;;;;;;;;;;;;;;;;2066730;28;19912;-84
2023/07/25 04:18:16;;;;;;;;;;;;;;;;;;2080193;28;19905;-83
2023/07/25 04:19:37;;;;;;;;;;;;;;;;;;2069326;28;19967;-84
2023/07/25 04:20:58;;;;;;;;;;;;;;;;;;2066431;28;19976;-83
2023/07/25 04:22:19;;;;;;;;;;;;;;;;;;2061991;28;19983;-83
2023/07/25 04:23:39;;;;;;;;;;;;;;;;;;2067804;28;19909;-83
2023/07/25 04:25:00;;;;;;;;;;;;;;;;;;2064094;28;19909;-84
2023/07/25 04:26:21;;;;;;;;;;;;;;;;;;2063525;28;19910;-84
2023/07/25 04:27:41;;;;;;;;;;;;;;;;;;2061963;28;19906;-83
2023/07/25 04:29:02;;;;;;;;;;;;;;;;;;2063353;28;19905;-83
2023/07/25 04:30:23;;;;;;;;;;;;;;;;;;2065145;28;19921;-84
2023/07/25 04:31:44;;;;;;;;;;;;;;;;;;2074558;28;19905;-84
2023/07/25 04:33:05;;;;;;;;;;;;;;;;;;2065616;28;19906;-83
2023/07/25 04:34:26;;;;;;;;;;;;;;;;;;2072897;28;19909;-84
2023/07/25 04:35:46;;;;;;;;;;;;;;;;;;2073324;28;19921;-84
2023/07/25 04:37:07;;;;;;;;;;;;;;;;;;2074218;28;19905;-83
2023/07/25 04:38:28;;;;;;;;;;;;;;;;;;2067063;28;19906;-84
2023/07/25 04:39:49;;;;;;;;;;;;;;;;;;2071449;28;20360;-83
2023/07/25 04:41:09;;;;;;;;;;;;;;;;;;2066347;28;19914;-84
2023/07/25 04:42:30;;;;;;;;;;;;;;;;;;2071567;28;19928;-84
2023/07/25 04:43:51;;;;;;;;;;;;;;;;;;2065810;28;20396;-83
2023/07/25 04:45:11;;;;;;;;;;;;;;;;;;2071104;28;19905;-83
2023/07/25 04:46:32;;;;;;;;;;;;;;;;;;2066575;28;19916;-84
2023/07/25 04:47:53;;;;;;;;;;;;;;;;;;2071190;28;19959;-84
2023/07/25 04:49:13;;;;;;;;;;;;;;;;;;2074421;28;19909;-83
2023/07/25 04:50:34;;;;;;;;;;;;;;;;;;2063523;28;19914;-83
2023/07/25 04:51:55;;;;;;;;;;;;;;;;;;2065151;28;19912;-84
2023/07/25 04:53:15;;;;;;;;;;;;;;;;;;2069858;28;20324;-84
2023/07/25 04:54:36;;;;;;;;;;;;;;;;;;2067932;28;19976;-83
2023/07/25 04:55:57;;;;;;;;;;;;;;;;;;2072080;28;20353;-84
2023/07/25 04:57:18;;;;;;;;;;;;;;;;;;2082274;28;19905;-83
2023/07/25 04:58:40;;;;;;;;;;;;;;;;;;2075770;28;19916;-84
2023/07/25 05:00:01;;;;;;;;;;;;;;;;;;2064601;28;19910;-83
2023/07/25 05:01:22;;;;;;;;;;;;;;;;;;2067005;28;20312;-83
2023/07/25 05:02:43;;;;;;;;;;;;;;;;;;2062285;28;19906;-84
2023/07/25 05:04:04;;;;;;;;;;;;;;;;;;2066190;28;19906;-83
2023/07/25 05:05:24;;;;;;;;;;;;;;;;;;2065619;28;19905;-84
2023/07/25 05:06:45;;;;;;;;;;;;;;;;;;2062052;28;19905;-84
2023/07/25 05:08:06;;;;;;;;;;;;;;;;;;2070433;28;19912;-83
2023/07/25 05:09:27;;;;;;;;;;;;;;;;;;2064170;28;19910;-84
2023/07/25 05:10:47;;;;;;;;;;;;;;;;;;2069718;28;20232;-83
2023/07/25 05:12:08;;;;;;;;;;;;;;;;;;2074763;28;19906;-83
2023/07/25 05:13:29;;;;;;;;;;;;;;;;;;2066044;28;19914;-83
2023/07/25 05:14:49;;;;;;;;;;;;;;;;;;2064825;28;19906;-84
2023/07/25 05:16:10;;;;;;;;;;;;;;;;;;2062216;28;19929;-84
2023/07/25 05:17:31;;;;;;;;;;;;;;;;;;2065909;28;20325;-84
2023/07/25 05:18:51;;;;;;;;;;;;;;;;;;2064959;28;19913;-84
2023/07/25 05:20:12;;;;;;;;;;;;;;;;;;2071185;28;19920;-84
2023/07/25 05:21:33;;;;;;;;;;;;;;;;;;2059473;28;19914;-84
2023/07/25 05:22:53;;;;;;;;;;;;;;;;;;2069219;28;19967;-80
2023/07/25 05:24:15;;;;;;;;;;;;;;;;;;2064389;28;20040;-78
2023/07/25 05:25:35;;;;;;;;;;;;;;;;;;2060569;28;19940;-77
2023/07/25 05:26:56;;;;;;;;;;;;;;;;;;2062526;28;19905;-80
2023/07/25 05:28:17;;;;;;;;;;;;;;;;;;2061975;28;19909;-80
2023/07/25 05:29:37;;;;;;;;;;;;;;;;;;2068826;28;19905;-79
2023/07/25 05:30:58;;;;;;;;;;;;;;;;;;2074277;28;19914;-77
2023/07/25 05:32:19;;;;;;;;;;;;;;;;;;2072428;28;19909;-77
2023/07/25 05:33:39;;;;;;;;;;;;;;;;;;2065572;28;19905;-80
2023/07/25 05:35:00;;;;;;;;;;;;;;;;;;2064656;28;19992;-80
2023/07/25 05:36:21;;;;;;;;;;;;;;;;;;2062868;28;19909;-80
2023/07/25 05:37:42;;;;;;;;;;;;;;;;;;2063802;28;19913;-80
2023/07/25 05:39:03;;;;;;;;;;;;;;;;;;2062040;28;19913;-80
2023/07/25 05:40:23;;;;;;;;;;;;;;;;;;2058603;28;19905;-78
2023/07/25 05:41:44;;;;;;;;;;;;;;;;;;2061810;28;19914;-77
2023/07/25 05:43:05;;;;;;;;;;;;;;;;;;2065788;28;19914;-76
2023/07/25 05:44:25;;;;;;;;;;;;;;;;;;2057660;28;19906;-77
2023/07/25 05:45:46;;;;;;;;;;;;;;;;;;2059542;28;20264;-77
2023/07/25 05:47:07;;;;;;;;;;;;;;;;;;2068949;28;20225;-76
2023/07/25 05:48:28;;;;;;;;;;;;;;;;;;2072104;28;20277;-79
2023/07/25 05:49:48;;;;;;;;;;;;;;;;;;2065674;28;19906;-79
2023/07/25 05:51:09;;;;;;;;;;;;;;;;;;2063791;28;19925;-79
2023/07/25 05:52:30;;;;;;;;;;;;;;;;;;2063397;28;20376;-79
2023/07/25 05:53:51;;;;;;;;;;;;;;;;;;2062289;28;19912;-79
2023/07/25 05:55:11;;;;;;;;;;;;;;;;;;2073074;28;19906;-79
2023/07/25 05:56:32;;;;;;;;;;;;;;;;;;2073825;28;19913;-80
2023/07/25 05:57:53;;;;;;;;;;;;;;;;;;2068888;28;20387;-80
2023/07/25 05:59:13;;;;;;;;;;;;;;;;;;2061585;28;19996;-80
2023/07/25 06:00:34;;;;;;;;;;;;;;;;;;2071839;28;19905;-80
2023/07/25 06:01:55;;;;;;;;;;;;;;;;;;2064905;28;20380;-78
2023/07/25 06:03:15;;;;;;;;;;;;;;;;;;2069511;28;19910;-79
2023/07/25 06:04:36;;;;;;;;;;;;;;;;;;2062153;28;19906;-80
2023/07/25 06:05:57;;;;;;;;;;;;;;;;;;2071401;28;19912;-80
2023/07/25 06:07:17;;;;;;;;;;;;;;;;;;2073122;28;19928;-80
2023/07/25 06:08:38;;;;;;;;;;;;;;;;;;2061162;28;19910;-80
2023/07/25 06:09:59;;;;;;;;;;;;;;;;;;2068309;28;20352;-80
2023/07/25 06:11:22;;;;;;;;;;;;;;;;;;2064828;28;20296;-80
2023/07/25 06:12:44;;;;;;;;;;;;;;;;;;2070430;28;19906;-81
2023/07/25 06:14:04;;;;;;;;;;;;;;;;;;2064315;28;19910;-81
2023/07/25 06:15:28;;;;;;;;;;;;;;;;;;2064146;28;19906;-80
2023/07/25 06:16:48;;;;;;;;;;;;;;;;;;2072394;28;19917;-80
2023/07/25 06:18:09;;;;;;;;;;;;;;;;;;2073232;28;19920;-80
2023/07/25 06:19:30;;;;;;;;;;;;;;;;;;2069422;28;19939;-81
2023/07/25 06:20:50;;;;;;;;;;;;;;;;;;2067844;28;20236;-79
2023/07/25 06:22:11;;;;;;;;;;;;;;;;;;2074794;28;19917;-80
2023/07/25 06:23:32;;;;;;;;;;;;;;;;;;2065255;28;19909;-80
2023/07/25 06:24:53;;;;;;;;;;;;;;;;;;2077084;28;19920;-81
2023/07/25 06:26:13;;;;;;;;;;;;;;;;;;2074535;28;19909;-81
2023/07/25 06:27:34;;;;;;;;;;;;;;;;;;2064790;28;19913;-80
2023/07/25 06:28:55;;;;;;;;;;;;;;;;;;2060079;28;20369;-81
2023/07/25 06:30:15;;;;;;;;;;;;;;;;;;2071222;28;19909;-81
2023/07/25 06:31:36;;;;;;;;;;;;;;;;;;2071634;28;20382;-80
2023/07/25 06:32:57;;;;;;;;;;;;;;;;;;2077904;28;19909;-81
2023/07/25 06:34:18;;;;;;;;;;;;;;;;;;2063753;28;20343;-80
2023/07/25 06:35:39;;;;;;;;;;;;;;;;;;2062328;28;20293;-76
2023/07/25 06:36:59;;;;;;;;;;;;;;;;;;2059827;28;19918;-82
2023/07/25 06:38:20;;;;;;;;;;;;;;;;;;2071928;28;19905;-82
2023/07/25 06:39:41;;;;;;;;;;;;;;;;;;2065270;28;19905;-82
2023/07/25 06:41:01;;;;;;;;;;;;;;;;;;2069609;28;19905;-82
2023/07/25 06:42:22;;;;;;;;;;;;;;;;;;2058195;28;20323;-82
2023/07/25 06:43:43;;;;;;;;;;;;;;;;;;2063631;28;19910;-82
2023/07/25 06:45:04;;;;;;;;;;;;;;;;;;2073600;28;20410;-82
2023/07/25 06:46:24;;;;;;;;;;;;;;;;;;2063934;28;20330;-82
2023/07/25 06:47:45;;;;;;;;;;;;;;;;;;2069959;28;19905;-83
2023/07/25 06:49:06;;;;;;;;;;;;;;;;;;2073834;28;20368;-84
2023/07/25 06:50:26;;;;;;;;;;;;;;;;;;2076776;28;19916;-82
2023/07/25 06:51:48;;;;;;;;;;;;;;;;;;2066882;28;20297;-82
2023/07/25 06:53:09;;;;;;;;;;;;;;;;;;2073801;28;19905;-82
2023/07/25 06:54:29;;;;;;;;;;;;;;;;;;2075915;28;19909;-82
2023/07/25 06:55:50;;;;;;;;;;;;;;;;;;2078063;28;19909;-82
2023/07/25 06:57:11;;;;;;;;;;;;;;;;;;2076662;28;19909;-82
2023/07/25 06:58:32;;;;;;;;;;;;;;;;;;2067344;28;19910;-82
2023/07/25 06:59:52;;;;;;;;;;;;;;;;;;2067351;28;20309;-82
2023/07/25 07:01:13;;;;;;;;;;;;;;;;;;2073644;28;19914;-82
2023/07/25 07:02:34;;;;;;;;;;;;;;;;;;2066556;28;19912;-83
2023/07/25 07:03:55;;;;;;;;;;;;;;;;;;2069771;28;19913;-83
2023/07/25 07:05:15;;;;;;;;;;;;;;;;;;2068596;28;19912;-82
2023/07/25 07:06:36;;;;;;;;;;;;;;;;;;2069376;28;19906;-82
2023/07/25 07:07:57;;;;;;;;;;;;;;;;;;2067458;28;19968;-82
2023/07/25 07:09:17;;;;;;;;;;;;;;;;;;2074020;28;19905;-83
2023/07/25 07:10:38;;;;;;;;;;;;;;;;;;2066937;28;19910;-82
2023/07/25 07:11:59;;;;;;;;;;;;;;;;;;2067969;28;19918;-83
2023/07/25 07:13:20;;;;;;;;;;;;;;;;;;2067742;28;20379;-82
2023/07/25 07:14:40;;;;;;;;;;;;;;;;;;2068706;28;19909;-82
2023/07/25 07:16:01;;;;;;;;;;;;;;;;;;2073775;28;19920;-83
2023/07/25 07:17:22;;;;;;;;;;;;;;;;;;2080882;28;19912;-83
2023/07/25 07:18:43;;;;;;;;;;;;;;;;;;2074721;28;19910;-82
2023/07/25 07:20:04;;;;;;;;;;;;;;;;;;2079301;28;19905;-83
2023/07/25 07:21:25;;;;;;;;;;;;;;;;;;2067013;28;19914;-82
2023/07/25 07:22:46;;;;;;;;;;;;;;;;;;2064352;28;20340;-83
2023/07/25 07:24:06;;;;;;;;;;;;;;;;;;2073262;28;19912;-82
2023/07/25 07:25:27;;;;;;;;;;;;;;;;;;2076084;28;19905;-83
2023/07/25 07:26:48;;;;;;;;;;;;;;;;;;2071188;28;21655;-82
2023/07/25 07:28:08;;;;;;;;;;;;;;;;;;2073504;28;19905;-82
2023/07/25 07:29:29;;;;;;;;;;;;;;;;;;2074377;28;19918;-82
2023/07/25 07:30:50;;;;;;;;;;;;;;;;;;2077910;28;19913;-82
2023/07/25 07:32:10;;;;;;;;;;;;;;;;;;2084240;28;19917;-83
2023/07/25 07:33:31;;;;;;;;;;;;;;;;;;2084004;28;20359;-83
2023/07/25 07:34:52;;;;;;;;;;;;;;;;;;2075593;28;20299;-83
2023/07/25 07:36:13;;;;;;;;;;;;;;;;;;2072920;28;19909;-83
2023/07/25 07:37:33;;;;;;;;;;;;;;;;;;2074287;28;19913;-82
2023/07/25 07:38:54;;;;;;;;;;;;;;;;;;2058534;28;19910;-82
2023/07/25 07:40:15;;;;;;;;;;;;;;;;;;2073683;28;19909;-83
2023/07/25 07:41:35;;;;;;;;;;;;;;;;;;2066381;28;19914;-82
2023/07/25 07:42:56;;;;;;;;;;;;;;;;;;2073449;28;19906;-82
2023/07/25 07:44:17;;;;;;;;;;;;;;;;;;2075757;28;19906;-82
2023/07/25 07:45:37;;;;;;;;;;;;;;;;;;2066872;28;19906;-82
2023/07/25 07:46:58;;;;;;;;;;;;;;;;;;2068335;28;19910;-82
2023/07/25 07:48:19;;;;;;;;;;;;;;;;;;2084689;28;19912;-82
2023/07/25 07:49:39;;;;;;;;;;;;;;;;;;2074699;28;19919;-82
2023/07/25 07:51:00;;;;;;;;;;;;;;;;;;2072734;28;19910;-82
2023/07/25 07:52:21;;;;;;;;;;;;;;;;;;2073032;28;19913;-82
2023/07/25 07:53:42;;;;;;;;;;;;;;;;;;2081704;28;19912;-82
2023/07/25 07:55:02;;;;;;;;;;;;;;;;;;2074388;28;19913;-82
2023/07/25 07:56:23;;;;;;;;;;;;;;;;;;2074949;28;20375;-82
2023/07/25 07:57:44;;;;;;;;;;;;;;;;;;2067519;28;19910;-82
2023/07/25 07:59:04;;;;;;;;;;;;;;;;;;2060781;28;19917;-83
2023/07/25 08:00:25;;;;;;;;;;;;;;;;;;2059959;28;19906;-83
2023/07/25 08:01:46;;;;;;;;;;;;;;;;;;2061564;28;20292;-82
2023/07/25 08:03:06;;;;;;;;;;;;;;;;;;2059450;28;19917;-82
2023/07/25 08:04:27;;;;;;;;;;;;;;;;;;2063914;28;19905;-82
2023/07/25 08:05:48;;;;;;;;;;;;;;;;;;2067352;28;20372;-81
2023/07/25 08:07:09;;;;;;;;;;;;;;;;;;2059276;28;19910;-82
2023/07/25 08:08:30;;;;;;;;;;;;;;;;;;2056153;28;19910;-82
2023/07/25 08:09:50;;;;;;;;;;;;;;;;;;2056049;28;19914;-80
2023/07/25 08:11:11;;;;;;;;;;;;;;;;;;2064216;28;19910;-81
2023/07/25 08:12:32;;;;;;;;;;;;;;;;;;2071689;28;19917;-81
2023/07/25 08:13:53;;;;;;;;;;;;;;;;;;2074319;28;19979;-82
2023/07/25 08:15:13;;;;;;;;;;;;;;;;;;2066786;28;19905;-82
2023/07/25 08:16:34;;;;;;;;;;;;;;;;;;2069124;28;19925;-82
2023/07/25 08:17:55;;;;;;;;;;;;;;;;;;2074111;28;20353;-82
2023/07/25 08:19:15;;;;;;;;;;;;;;;;;;2072299;28;19956;-82
2023/07/25 08:20:36;;;;;;;;;;;;;;;;;;2071096;28;20276;-81
2023/07/25 08:21:57;;;;;;;;;;;;;;;;;;2072078;28;19968;-82
2023/07/25 08:23:20;;;;;;;;;;;;;;;;;;2080241;28;19912;-81
2023/07/25 08:24:41;;;;;;;;;;;;;;;;;;2062321;28;20272;-82
2023/07/25 08:26:01;;;;;;;;;;;;;;;;;;2063874;28;19906;-80
2023/07/25 08:27:22;;;;;;;;;;;;;;;;;;2067265;28;19909;-82
2023/07/25 08:28:43;;;;;;;;;;;;;;;;;;2062464;28;19906;-82
2023/07/25 08:30:04;;;;;;;;;;;;;;;;;;2072346;28;20341;-82
2023/07/25 08:31:24;;;;;;;;;;;;;;;;;;2073769;28;20307;-82
2023/07/25 08:32:45;;;;;;;;;;;;;;;;;;2079228;28;19920;-82
2023/07/25 08:34:06;;;;;;;;;;;;;;;;;;2070828;28;20307;-82
2023/07/25 08:35:26;;;;;;;;;;;;;;;;;;2069751;28;19909;-82
2023/07/25 08:36:47;;;;;;;;;;;;;;;;;;2067814;28;19909;-82
2023/07/25 08:38:08;;;;;;;;;;;;;;;;;;2065499;28;20387;-82
2023/07/25 08:39:29;;;;;;;;;;;;;;;;;;2064386;28;19985;-80
2023/07/25 08:40:50;;;;;;;;;;;;;;;;;;2080029;28;19913;-80
2023/07/25 08:42:10;;;;;;;;;;;;;;;;;;2068623;28;20004;-80
2023/07/25 08:43:31;;;;;;;;;;;;;;;;;;2071093;28;19905;-80
2023/07/25 08:44:52;;;;;;;;;;;;;;;;;;2074073;28;20333;-82
2023/07/25 08:46:16;;;;;;;;;;;;;;;;;;2072312;28;20311;-82
2023/07/25 08:47:36;;;;;;;;;;;;;;;;;;2079203;28;19939;-80
2023/07/25 08:48:57;;;;;;;;;;;;;;;;;;2078909;28;19981;-81
2023/07/25 08:50:18;;;;;;;;;;;;;;;;;;2066543;28;19909;-80
2023/07/25 08:51:38;;;;;;;;;;;;;;;;;;2063856;28;20262;-78
2023/07/25 08:52:59;;;;;;;;;;;;;;;;;;2072738;28;19910;-81
2023/07/25 08:54:20;;;;;;;;;;;;;;;;;;2074434;28;19917;-80
2023/07/25 08:55:40;;;;;;;;;;;;;;;;;;2075193;28;19909;-80
2023/07/25 08:57:02;;;;;;;;;;;;;;;;;;2065780;28;19909;-79
2023/07/25 08:58:22;;;;;;;;;;;;;;;;;;2061928;28;19928;-79
2023/07/25 08:59:43;;;;;;;;;;;;;;;;;;2069670;28;19932;-79
2023/07/25 09:01:04;;;;;;;;;;;;;;;;;;2065867;28;19906;-79
2023/07/25 09:02:25;;;;;;;;;;;;;;;;;;2065890;28;19914;-80
2023/07/25 09:03:45;;;;;;;;;;;;;;;;;;2065583;28;20301;-79
2023/07/25 09:05:06;;;;;;;;;;;;;;;;;;2066758;28;19905;-78
2023/07/25 09:06:27;;;;;;;;;;;;;;;;;;2066687;28;19906;-79
2023/07/25 09:07:47;;;;;;;;;;;;;;;;;;2066240;28;20397;-79
2023/07/25 09:09:08;;;;;;;;;;;;;;;;;;2058424;28;19985;-79
2023/07/25 09:10:29;;;;;;;;;;;;;;;;;;2063902;28;19913;-79
2023/07/25 09:11:49;;;;;;;;;;;;;;;;;;2063998;28;19913;-79